Aviation Digital Data Service (ADDS)

Output produced by METARs form (0349 UTC 26 June 2019)
found at http://www.aviationweather.gov/metar/data/
 
METAR text: YSCB 260330Z AUTO 11004KT 060V170 9999 // NCD 14/03 Q1035 RMK RF00.0/000.0 NOSIG RMK USE TAF FOR ARRIVALS AFTER 0600Z
Conditions at: YSCB (CANBERRA (CIV/MI, AU) observed 0330 UTC 26 June 2019
Temperature: 14.0°C (57°F)
Dewpoint: 3.0°C (37°F) [RH = 47%]
Pressure (altimeter): 30.56 inches Hg (1035.0 mb)
Winds: from the ESE (110 degrees) at 5 MPH (4 knots; 2.1 m/s)
Visibility: 6 or more miles (10+ km)
Ceiling: at least 12,000 feet AGL
Clouds: sky clear below 12,000 feet AGL
Weather: no significant weather observed at this time

METAR text: YSCB 260300Z AUTO 08006KT 050V110 9999 // SCT036 14/03 Q1035 NOSIG
Conditions at: YSCB (CANBERRA (CIV/MI, AU) observed 0300 UTC 26 June 2019
Temperature: 14.0°C (57°F)
Dewpoint: 3.0°C (37°F) [RH = 47%]
Pressure (altimeter): 30.56 inches Hg (1035.0 mb)
Winds: from the E (80 degrees) at 7 MPH (6 knots; 3.1 m/s)
Visibility: 6 or more miles (10+ km)
Ceiling: at least 12,000 feet AGL
Clouds: scattered clouds at 3600 feet AGL
Weather: no significant weather observed at this time

METAR text: YSCB 260230Z AUTO 05005KT 010V070 9999 // SCT036 14/04 Q1035 RMK RF00.0/000.0 NOSIG
Conditions at: YSCB (CANBERRA (CIV/MI, AU) observed 0230 UTC 26 June 2019
Temperature: 14.0°C (57°F)
Dewpoint: 4.0°C (39°F) [RH = 51%]
Pressure (altimeter): 30.56 inches Hg (1035.0 mb)
Winds: from the NE (50 degrees) at 6 MPH (5 knots; 2.6 m/s)
Visibility: 6 or more miles (10+ km)
Ceiling: at least 12,000 feet AGL
Clouds: scattered clouds at 3600 feet AGL
Weather: no significant weather observed at this time

METAR text: YSCB 260200Z AUTO 04005KT 350V110 9999 // NCD 13/04 Q1036 RMK RF00.0/000.0 NOSIG
Conditions at: YSCB (CANBERRA (CIV/MI, AU) observed 0200 UTC 26 June 2019
Temperature: 13.0°C (55°F)
Dewpoint: 4.0°C (39°F) [RH = 54%]
Pressure (altimeter): 30.59 inches Hg (1036.0 mb)
Winds: from the NE (40 degrees) at 6 MPH (5 knots; 2.6 m/s)
Visibility: 6 or more miles (10+ km)
Ceiling: at least 12,000 feet AGL
Clouds: sky clear below 12,000 feet AGL
Weather: no significant weather observed at this time

METAR text: YSCB 260130Z AUTO 08005KT 050V130 9999 // NCD 13/04 Q1036 RMK RF00.0/000.0 NOSIG
Conditions at: YSCB (CANBERRA (CIV/MI, AU) observed 0130 UTC 26 June 2019
Temperature: 13.0°C (55°F)
Dewpoint: 4.0°C (39°F) [RH = 54%]
Pressure (altimeter): 30.59 inches Hg (1036.0 mb)
Winds: from the E (80 degrees) at 6 MPH (5 knots; 2.6 m/s)
Visibility: 6 or more miles (10+ km)
Ceiling: at least 12,000 feet AGL
Clouds: sky clear below 12,000 feet AGL
Weather: no significant weather observed at this time

METAR text: YSCB 260100Z AUTO 13006KT 9999 // NCD 12/04 Q1036 NOSIG
Conditions at: YSCB (CANBERRA (CIV/MI, AU) observed 0100 UTC 26 June 2019
Temperature: 12.0°C (54°F)
Dewpoint: 4.0°C (39°F) [RH = 58%]
Pressure (altimeter): 30.59 inches Hg (1036.0 mb)
Winds: from the SE (130 degrees) at 7 MPH (6 knots; 3.1 m/s)
Visibility: 6 or more miles (10+ km)
Ceiling: at least 12,000 feet AGL
Clouds: sky clear below 12,000 feet AGL
Weather: no significant weather observed at this time

METAR text: YSCB 260030Z AUTO 13004KT 090V220 9999 // NCD 12/04 Q1037 RMK RF00.0/000.0 NOSIG
Conditions at: YSCB (CANBERRA (CIV/MI, AU) observed 0030 UTC 26 June 2019
Temperature: 12.0°C (54°F)
Dewpoint: 4.0°C (39°F) [RH = 58%]
Pressure (altimeter): 30.62 inches Hg (1037.0 mb)
Winds: from the SE (130 degrees) at 5 MPH (4 knots; 2.1 m/s)
Visibility: 6 or more miles (10+ km)
Ceiling: at least 12,000 feet AGL
Clouds: sky clear below 12,000 feet AGL
Weather: no significant weather observed at this time

METAR text: YSCB 260000Z AUTO 24004KT 9999 // NCD 11/05 Q1037 RMK RF00.0/000.0 NOSIG
Conditions at: YSCB (CANBERRA (CIV/MI, AU) observed 0000 UTC 26 June 2019
Temperature: 11.0°C (52°F)
Dewpoint: 5.0°C (41°F) [RH = 66%]
Pressure (altimeter): 30.62 inches Hg (1037.0 mb)
Winds: from the WSW (240 degrees) at 5 MPH (4 knots; 2.1 m/s)
Visibility: 6 or more miles (10+ km)
Ceiling: at least 12,000 feet AGL
Clouds: sky clear below 12,000 feet AGL
Weather: no significant weather observed at this time

METAR text: YSCB 252330Z AUTO 19003KT 9999 // SCT030 10/05 Q1037 RMK RF00.0/000.0 NOSIG
Conditions at: YSCB (CANBERRA (CIV/MI, AU) observed 2330 UTC 25 June 2019
Temperature: 10.0°C (50°F)
Dewpoint: 5.0°C (41°F) [RH = 71%]
Pressure (altimeter): 30.62 inches Hg (1037.0 mb)
Winds: from the S (190 degrees) at 3 MPH (3 knots; 1.5 m/s)
Visibility: 6 or more miles (10+ km)
Ceiling: at least 12,000 feet AGL
Clouds: scattered clouds at 3000 feet AGL
Weather: no significant weather observed at this time

METAR text: YSCB 252300Z AUTO 22004KT 9999 // NCD 07/04 Q1037 NOSIG
Conditions at: YSCB (CANBERRA (CIV/MI, AU) observed 2300 UTC 25 June 2019
Temperature: 7.0°C (45°F)
Dewpoint: 4.0°C (39°F) [RH = 81%]
Pressure (altimeter): 30.62 inches Hg (1037.0 mb)
Winds: from the SW (220 degrees) at 5 MPH (4 knots; 2.1 m/s)
Visibility: 6 or more miles (10+ km)
Ceiling: at least 12,000 feet AGL
Clouds: sky clear below 12,000 feet AGL
Weather: no significant weather observed at this time

METAR text: YSCB 252230Z AUTO 21002KT 9999 // ////// 06/04 Q1037 RMK RF00.0/000.0 NOSIG
Conditions at: YSCB (CANBERRA (CIV/MI, AU) observed 2230 UTC 25 June 2019
Temperature: 6.0°C (43°F)
Dewpoint: 4.0°C (39°F) [RH = 87%]
Pressure (altimeter): 30.62 inches Hg (1037.0 mb)
Winds: from the SSW (210 degrees) at 2 MPH (2 knots; 1.0 m/s)
Visibility: 6 or more miles (10+ km)
Ceiling: unknown
Clouds: missing
Weather: no significant weather observed at this time

METAR text: YSCB 252201Z AUTO 00000KT 9999 // OVC025 05/04 Q1037 RF00/0/000/0 FM2201 VRB03KT 9999 BKN022 FM2300 10008KT 9999 SCT030
Conditions at: YSCB (CANBERRA (CIV/MI, AU) observed 2201 UTC 25 June 2019
Temperature: 5.0°C (41°F)
Dewpoint: 4.0°C (39°F) [RH = 93%]
Pressure (altimeter): 30.62 inches Hg (1037.0 mb)
Winds: calm
Visibility: 6 or more miles (10+ km)
Ceiling: 2500 feet AGL
Clouds: overcast cloud deck at 2500 feet AGL
Weather: no significant weather observed at this time

METAR text: YSCB 252200Z AUTO 00000KT 9999 // OVC025 05/04 Q1037 RF00/0/000/0 FM2200 VRB03KT 9999 BKN022 FM2300 10008KT 9999 SCT030
Conditions at: YSCB (CANBERRA (CIV/MI, AU) observed 2200 UTC 25 June 2019
Temperature: 5.0°C (41°F)
Dewpoint: 4.0°C (39°F) [RH = 93%]
Pressure (altimeter): 30.62 inches Hg (1037.0 mb)
Winds: calm
Visibility: 6 or more miles (10+ km)
Ceiling: 2500 feet AGL
Clouds: overcast cloud deck at 2500 feet AGL
Weather: no significant weather observed at this time

METAR text: YSCB 252130Z AUTO 00000KT 9999 // BKN019 OVC026 03/03 Q1036 RMK RF00.0/000.0 FM2330 10008KT 9999 SCT030
Conditions at: YSCB (CANBERRA (CIV/MI, AU) observed 2130 UTC 25 June 2019
Temperature: 3.0°C (37°F)
Dewpoint: 3.0°C (37°F) [RH = 100%]
Pressure (altimeter): 30.59 inches Hg (1036.0 mb)
Winds: calm
Visibility: 6 or more miles (10+ km)
Ceiling: 1900 feet AGL
Clouds: broken clouds at 1900 feet AGL
overcast cloud deck at 2600 feet AGL
Weather: no significant weather observed at this time

METAR text: YSCB 252100Z AUTO 03003KT 9999 // OVC023 OVC027 03/02 Q1036 RMK RF00.0/000.0 FM2100 VRB03KT 9999 BKN020 FM2330 10008KT 9999 SCT030
Conditions at: YSCB (CANBERRA (CIV/MI, AU) observed 2100 UTC 25 June 2019
Temperature: 3.0°C (37°F)
Dewpoint: 2.0°C (36°F) [RH = 93%]
Pressure (altimeter): 30.59 inches Hg (1036.0 mb)
Winds: from the NNE (30 degrees) at 3 MPH (3 knots; 1.5 m/s)
Visibility: 6 or more miles (10+ km)
Ceiling: 2300 feet AGL
Clouds: overcast cloud deck at 2300 feet AGL
overcast cloud deck at 2700 feet AGL
Weather: no significant weather observed at this time

METAR text: YSCB 252030Z AUTO 01001KT 9999 // BKN023 02/01 Q1036 RMK RF00.0/000.0 FM2100 VRB03KT 9999 BKN020
Conditions at: YSCB (CANBERRA (CIV/MI, AU) observed 2030 UTC 25 June 2019
Temperature: 2.0°C (36°F)
Dewpoint: 1.0°C (34°F) [RH = 93%]
Pressure (altimeter): 30.59 inches Hg (1036.0 mb)
Winds: from the N (10 degrees) at 1 MPH (1 knots; 0.5 m/s)
Visibility: 6 or more miles (10+ km)
Ceiling: 2300 feet AGL
Clouds: broken clouds at 2300 feet AGL
Weather: no significant weather observed at this time

METAR text: YSCB 252000Z AUTO 24005KT 9999 // OVC025 02/02 Q1036 FM2030 VRB03KT 0500 FG BKN001
Conditions at: YSCB (CANBERRA (CIV/MI, AU) observed 2000 UTC 25 June 2019
Temperature: 2.0°C (36°F)
Dewpoint: 2.0°C (36°F) [RH = 100%]
Pressure (altimeter): 30.59 inches Hg (1036.0 mb)
Winds: from the WSW (240 degrees) at 6 MPH (5 knots; 2.6 m/s)
Visibility: 6 or more miles (10+ km)
Ceiling: 2500 feet AGL
Clouds: overcast cloud deck at 2500 feet AGL
Weather: no significant weather observed at this time

METAR text: YSCB 251930Z AUTO 25001KT 9999 // BKN025 02/02 Q1035 RMK RF00.0/000.0 FM2030 VRB03KT 0500 FG BKN001
Conditions at: YSCB (CANBERRA (CIV/MI, AU) observed 1930 UTC 25 June 2019
Temperature: 2.0°C (36°F)
Dewpoint: 2.0°C (36°F) [RH = 100%]
Pressure (altimeter): 30.56 inches Hg (1035.0 mb)
Winds: from the WSW (250 degrees) at 1 MPH (1 knots; 0.5 m/s)
Visibility: 6 or more miles (10+ km)
Ceiling: 2500 feet AGL
Clouds: broken clouds at 2500 feet AGL
Weather: no significant weather observed at this time

METAR text: YSCB 251900Z AUTO 36005KT 9999 // OVC025 03/03 Q1035 RMK RF00.0/000.0 FM2000 VRB03KT 0500 FG BKN001
Conditions at: YSCB (CANBERRA (CIV/MI, AU) observed 1900 UTC 25 June 2019
Temperature: 3.0°C (37°F)
Dewpoint: 3.0°C (37°F) [RH = 100%]
Pressure (altimeter): 30.56 inches Hg (1035.0 mb)
Winds: from the N (360 degrees) at 6 MPH (5 knots; 2.6 m/s)
Visibility: 6 or more miles (10+ km)
Ceiling: 2500 feet AGL
Clouds: overcast cloud deck at 2500 feet AGL
Weather: no significant weather observed at this time

METAR text: YSCB 251830Z AUTO 00000KT 9999 // BKN027 03/03 Q1035 RF00.0/000.0
Conditions at: YSCB (CANBERRA (CIV/MI, AU) observed 1830 UTC 25 June 2019
Temperature: 3.0°C (37°F)
Dewpoint: 3.0°C (37°F) [RH = 100%]
Pressure (altimeter): 30.56 inches Hg (1035.0 mb)
Winds: calm
Visibility: 6 or more miles (10+ km)
Ceiling: 2700 feet AGL
Clouds: broken clouds at 2700 feet AGL
Weather: no significant weather observed at this time

METAR text: YSCB 251800Z AUTO 00000KT 9999 // OVC027 03/03 Q1035 RF00.0/000.0
Conditions at: YSCB (CANBERRA (CIV/MI, AU) observed 1800 UTC 25 June 2019
Temperature: 3.0°C (37°F)
Dewpoint: 3.0°C (37°F) [RH = 100%]
Pressure (altimeter): 30.56 inches Hg (1035.0 mb)
Winds: calm
Visibility: 6 or more miles (10+ km)
Ceiling: 2700 feet AGL
Clouds: overcast cloud deck at 2700 feet AGL
Weather: no significant weather observed at this time

METAR text: YSCB 251730Z AUTO 10003KT 9999 // OVC027 OVC031 03/03 Q1035
Conditions at: YSCB (CANBERRA (CIV/MI, AU) observed 1730 UTC 25 June 2019
Temperature: 3.0°C (37°F)
Dewpoint: 3.0°C (37°F) [RH = 100%]
Pressure (altimeter): 30.56 inches Hg (1035.0 mb)
Winds: from the E (100 degrees) at 3 MPH (3 knots; 1.5 m/s)
Visibility: 6 or more miles (10+ km)
Ceiling: 2700 feet AGL
Clouds: overcast cloud deck at 2700 feet AGL
overcast cloud deck at 3100 feet AGL
Weather: no significant weather observed at this time

METAR text: YSCB 251700Z AUTO 00000KT 9999 // OVC027 03/03 Q1035 RF00.0/000.0
Conditions at: YSCB (CANBERRA (CIV/MI, AU) observed 1700 UTC 25 June 2019
Temperature: 3.0°C (37°F)
Dewpoint: 3.0°C (37°F) [RH = 100%]
Pressure (altimeter): 30.56 inches Hg (1035.0 mb)
Winds: calm
Visibility: 6 or more miles (10+ km)
Ceiling: 2700 feet AGL
Clouds: overcast cloud deck at 2700 feet AGL
Weather: no significant weather observed at this time

METAR text: YSCB 251630Z AUTO 00000KT 9999 // OVC029 03/03 Q1035 RF00.0/000.0
Conditions at: YSCB (CANBERRA (CIV/MI, AU) observed 1630 UTC 25 June 2019
Temperature: 3.0°C (37°F)
Dewpoint: 3.0°C (37°F) [RH = 100%]
Pressure (altimeter): 30.56 inches Hg (1035.0 mb)
Winds: calm
Visibility: 6 or more miles (10+ km)
Ceiling: 2900 feet AGL
Clouds: overcast cloud deck at 2900 feet AGL
Weather: no significant weather observed at this time

METAR text: YSCB 251600Z AUTO 00000KT 9999 // OVC029 02/02 Q1035 RF00.0/000.0
Conditions at: YSCB (CANBERRA (CIV/MI, AU) observed 1600 UTC 25 June 2019
Temperature: 2.0°C (36°F)
Dewpoint: 2.0°C (36°F) [RH = 100%]
Pressure (altimeter): 30.56 inches Hg (1035.0 mb)
Winds: calm
Visibility: 6 or more miles (10+ km)
Ceiling: 2900 feet AGL
Clouds: overcast cloud deck at 2900 feet AGL
Weather: no significant weather observed at this time

METAR text: YSCB 251530Z AUTO 07003KT 9999 // BKN029 02/02 Q1035 RF00.0/000.0
Conditions at: YSCB (CANBERRA (CIV/MI, AU) observed 1530 UTC 25 June 2019
Temperature: 2.0°C (36°F)
Dewpoint: 2.0°C (36°F) [RH = 100%]
Pressure (altimeter): 30.56 inches Hg (1035.0 mb)
Winds: from the ENE (70 degrees) at 3 MPH (3 knots; 1.5 m/s)
Visibility: 6 or more miles (10+ km)
Ceiling: 2900 feet AGL
Clouds: broken clouds at 2900 feet AGL
Weather: no significant weather observed at this time

METAR text: YSCB 251500Z AUTO 12003KT 9999 // SCT031 02/02 Q1035 RF00.0/000.0
Conditions at: YSCB (CANBERRA (CIV/MI, AU) observed 1500 UTC 25 June 2019
Temperature: 2.0°C (36°F)
Dewpoint: 2.0°C (36°F) [RH = 100%]
Pressure (altimeter): 30.56 inches Hg (1035.0 mb)
Winds: from the ESE (120 degrees) at 3 MPH (3 knots; 1.5 m/s)
Visibility: 6 or more miles (10+ km)
Ceiling: at least 12,000 feet AGL
Clouds: scattered clouds at 3100 feet AGL
Weather: no significant weather observed at this time

METAR text: YSCB 251430Z AUTO 09005KT 9999 // SCT030 04/03 Q1035 RF00.0/000.0
Conditions at: YSCB (CANBERRA (CIV/MI, AU) observed 1430 UTC 25 June 2019
Temperature: 4.0°C (39°F)
Dewpoint: 3.0°C (37°F) [RH = 93%]
Pressure (altimeter): 30.56 inches Hg (1035.0 mb)
Winds: from the E (90 degrees) at 6 MPH (5 knots; 2.6 m/s)
Visibility: 6 or more miles (10+ km)
Ceiling: at least 12,000 feet AGL
Clouds: scattered clouds at 3000 feet AGL
Weather: no significant weather observed at this time

METAR text: YSCB 251400Z AUTO 11004KT 9999 // NCD 04/04 Q1035
Conditions at: YSCB (CANBERRA (CIV/MI, AU) observed 1400 UTC 25 June 2019
Temperature: 4.0°C (39°F)
Dewpoint: 4.0°C (39°F) [RH = 100%]
Pressure (altimeter): 30.56 inches Hg (1035.0 mb)
Winds: from the ESE (110 degrees) at 5 MPH (4 knots; 2.1 m/s)
Visibility: 6 or more miles (10+ km)
Ceiling: at least 12,000 feet AGL
Clouds: sky clear below 12,000 feet AGL
Weather: no significant weather observed at this time

METAR text: YSCB 251330Z AUTO 07001KT 9999 // NCD 02/01 Q1035 RF00.0/000.0
Conditions at: YSCB (CANBERRA (CIV/MI, AU) observed 1330 UTC 25 June 2019
Temperature: 2.0°C (36°F)
Dewpoint: 1.0°C (34°F) [RH = 93%]
Pressure (altimeter): 30.56 inches Hg (1035.0 mb)
Winds: from the ENE (70 degrees) at 1 MPH (1 knots; 0.5 m/s)
Visibility: 6 or more miles (10+ km)
Ceiling: at least 12,000 feet AGL
Clouds: sky clear below 12,000 feet AGL
Weather: no significant weather observed at this time

METAR text: YSCB 251300Z AUTO 00000KT 9999 // NCD 02/02 Q1035 RF00.0/000.0
Conditions at: YSCB (CANBERRA (CIV/MI, AU) observed 1300 UTC 25 June 2019
Temperature: 2.0°C (36°F)
Dewpoint: 2.0°C (36°F) [RH = 100%]
Pressure (altimeter): 30.56 inches Hg (1035.0 mb)
Winds: calm
Visibility: 6 or more miles (10+ km)
Ceiling: at least 12,000 feet AGL
Clouds: sky clear below 12,000 feet AGL
Weather: no significant weather observed at this time

METAR text: YSCB 251230Z AUTO 00000KT 9999 // NCD 02/02 Q1035 RF00.0/000.0
Conditions at: YSCB (CANBERRA (CIV/MI, AU) observed 1230 UTC 25 June 2019
Temperature: 2.0°C (36°F)
Dewpoint: 2.0°C (36°F) [RH = 100%]
Pressure (altimeter): 30.56 inches Hg (1035.0 mb)
Winds: calm
Visibility: 6 or more miles (10+ km)
Ceiling: at least 12,000 feet AGL
Clouds: sky clear below 12,000 feet AGL
Weather: no significant weather observed at this time

METAR text: YSCB 251200Z AUTO 17001KT 9999 // NCD 03/03 Q1035 RF00.0/000.0
Conditions at: YSCB (CANBERRA (CIV/MI, AU) observed 1200 UTC 25 June 2019
Temperature: 3.0°C (37°F)
Dewpoint: 3.0°C (37°F) [RH = 100%]
Pressure (altimeter): 30.56 inches Hg (1035.0 mb)
Winds: from the S (170 degrees) at 1 MPH (1 knots; 0.5 m/s)
Visibility: 6 or more miles (10+ km)
Ceiling: at least 12,000 feet AGL
Clouds: sky clear below 12,000 feet AGL
Weather: no significant weather observed at this time

METAR text: YSCB 251130Z AUTO 00000KT 9999 // NCD 05/03 Q1035 RF00.0/000.0
Conditions at: YSCB (CANBERRA (CIV/MI, AU) observed 1130 UTC 25 June 2019
Temperature: 5.0°C (41°F)
Dewpoint: 3.0°C (37°F) [RH = 87%]
Pressure (altimeter): 30.56 inches Hg (1035.0 mb)
Winds: calm
Visibility: 6 or more miles (10+ km)
Ceiling: at least 12,000 feet AGL
Clouds: sky clear below 12,000 feet AGL
Weather: no significant weather observed at this time

METAR text: YSCB 251100Z AUTO 00000KT 9999 // NCD 04/03 Q1035 RF00.0/000.0
Conditions at: YSCB (CANBERRA (CIV/MI, AU) observed 1100 UTC 25 June 2019
Temperature: 4.0°C (39°F)
Dewpoint: 3.0°C (37°F) [RH = 93%]
Pressure (altimeter): 30.56 inches Hg (1035.0 mb)
Winds: calm
Visibility: 6 or more miles (10+ km)
Ceiling: at least 12,000 feet AGL
Clouds: sky clear below 12,000 feet AGL
Weather: no significant weather observed at this time

METAR text: YSCB 251030Z AUTO 15004KT 9999 // NCD 03/01 Q1034 RF00.0/000.0
Conditions at: YSCB (CANBERRA (CIV/MI, AU) observed 1030 UTC 25 June 2019
Temperature: 3.0°C (37°F)
Dewpoint: 1.0°C (34°F) [RH = 87%]
Pressure (altimeter): 30.53 inches Hg (1034.0 mb)
Winds: from the SSE (150 degrees) at 5 MPH (4 knots; 2.1 m/s)
Visibility: 6 or more miles (10+ km)
Ceiling: at least 12,000 feet AGL
Clouds: sky clear below 12,000 feet AGL
Weather: no significant weather observed at this time

METAR text: YSCB 251000Z AUTO 13006KT 9999 // NCD 05/03 Q1034 RF00.0/000.0
Conditions at: YSCB (CANBERRA (CIV/MI, AU) observed 1000 UTC 25 June 2019
Temperature: 5.0°C (41°F)
Dewpoint: 3.0°C (37°F) [RH = 87%]
Pressure (altimeter): 30.53 inches Hg (1034.0 mb)
Winds: from the SE (130 degrees) at 7 MPH (6 knots; 3.1 m/s)
Visibility: 6 or more miles (10+ km)
Ceiling: at least 12,000 feet AGL
Clouds: sky clear below 12,000 feet AGL
Weather: no significant weather observed at this time

METAR text: YSCB 250930Z AUTO 17004KT 9999 // NCD 05/02 Q1034 RF00.0/000.0
Conditions at: YSCB (CANBERRA (CIV/MI, AU) observed 0930 UTC 25 June 2019
Temperature: 5.0°C (41°F)
Dewpoint: 2.0°C (36°F) [RH = 81%]
Pressure (altimeter): 30.53 inches Hg (1034.0 mb)
Winds: from the S (170 degrees) at 5 MPH (4 knots; 2.1 m/s)
Visibility: 6 or more miles (10+ km)
Ceiling: at least 12,000 feet AGL
Clouds: sky clear below 12,000 feet AGL
Weather: no significant weather observed at this time

METAR text: YSCB 250900Z AUTO 14002KT 9999 // NCD 06/03 Q1034 RF00.0/000.0
Conditions at: YSCB (CANBERRA (CIV/MI, AU) observed 0900 UTC 25 June 2019
Temperature: 6.0°C (43°F)
Dewpoint: 3.0°C (37°F) [RH = 81%]
Pressure (altimeter): 30.53 inches Hg (1034.0 mb)
Winds: from the SE (140 degrees) at 2 MPH (2 knots; 1.0 m/s)
Visibility: 6 or more miles (10+ km)
Ceiling: at least 12,000 feet AGL
Clouds: sky clear below 12,000 feet AGL
Weather: no significant weather observed at this time

METAR text: YSCB 250830Z AUTO 11005KT 9999 // NCD 06/03 Q1034 RF00.0/000.0
Conditions at: YSCB (CANBERRA (CIV/MI, AU) observed 0830 UTC 25 June 2019
Temperature: 6.0°C (43°F)
Dewpoint: 3.0°C (37°F) [RH = 81%]
Pressure (altimeter): 30.53 inches Hg (1034.0 mb)
Winds: from the ESE (110 degrees) at 6 MPH (5 knots; 2.6 m/s)
Visibility: 6 or more miles (10+ km)
Ceiling: at least 12,000 feet AGL
Clouds: sky clear below 12,000 feet AGL
Weather: no significant weather observed at this time

METAR text: YSCB 250800Z AUTO 13005KT 9999 // NCD 06/02 Q1033
Conditions at: YSCB (CANBERRA (CIV/MI, AU) observed 0800 UTC 25 June 2019
Temperature: 6.0°C (43°F)
Dewpoint: 2.0°C (36°F) [RH = 75%]
Pressure (altimeter): 30.50 inches Hg (1033.0 mb)
Winds: from the SE (130 degrees) at 6 MPH (5 knots; 2.6 m/s)
Visibility: 6 or more miles (10+ km)
Ceiling: at least 12,000 feet AGL
Clouds: sky clear below 12,000 feet AGL
Weather: no significant weather observed at this time

METAR text: YSCB 250730Z AUTO 08005KT 9999 // NCD 09/03 Q1033 RF00.0/000.0
Conditions at: YSCB (CANBERRA (CIV/MI, AU) observed 0730 UTC 25 June 2019
Temperature: 9.0°C (48°F)
Dewpoint: 3.0°C (37°F) [RH = 66%]
Pressure (altimeter): 30.50 inches Hg (1033.0 mb)
Winds: from the E (80 degrees) at 6 MPH (5 knots; 2.6 m/s)
Visibility: 6 or more miles (10+ km)
Ceiling: at least 12,000 feet AGL
Clouds: sky clear below 12,000 feet AGL
Weather: no significant weather observed at this time

METAR text: YSCB 250700Z AUTO 05007KT 9999 // NCD 11/03 Q1033
Conditions at: YSCB (CANBERRA (CIV/MI, AU) observed 0700 UTC 25 June 2019
Temperature: 11.0°C (52°F)
Dewpoint: 3.0°C (37°F) [RH = 58%]
Pressure (altimeter): 30.50 inches Hg (1033.0 mb)
Winds: from the NE (50 degrees) at 8 MPH (7 knots; 3.6 m/s)
Visibility: 6 or more miles (10+ km)
Ceiling: at least 12,000 feet AGL
Clouds: sky clear below 12,000 feet AGL
Weather: no significant weather observed at this time

METAR text: YSCB 250630Z AUTO 07008KT 9999 // NCD 13/04 Q1033 RF00.0/000.0
Conditions at: YSCB (CANBERRA (CIV/MI, AU) observed 0630 UTC 25 June 2019
Temperature: 13.0°C (55°F)
Dewpoint: 4.0°C (39°F) [RH = 54%]
Pressure (altimeter): 30.50 inches Hg (1033.0 mb)
Winds: from the ENE (70 degrees) at 9 MPH (8 knots; 4.1 m/s)
Visibility: 6 or more miles (10+ km)
Ceiling: at least 12,000 feet AGL
Clouds: sky clear below 12,000 feet AGL
Weather: no significant weather observed at this time

METAR text: YSCB 250600Z AUTO 08007KT 9999 // NCD 14/04 Q1032
Conditions at: YSCB (CANBERRA (CIV/MI, AU) observed 0600 UTC 25 June 2019
Temperature: 14.0°C (57°F)
Dewpoint: 4.0°C (39°F) [RH = 51%]
Pressure (altimeter): 30.47 inches Hg (1032.0 mb)
Winds: from the E (80 degrees) at 8 MPH (7 knots; 3.6 m/s)
Visibility: 6 or more miles (10+ km)
Ceiling: at least 12,000 feet AGL
Clouds: sky clear below 12,000 feet AGL
Weather: no significant weather observed at this time

METAR text: YSCB 250530Z AUTO 10006KT 9999 // NCD 15/04 Q1032 RMK RF00.0/000.0 NOSIG RMK USE TAF FOR ARRIVALS AFTER 0600Z
Conditions at: YSCB (CANBERRA (CIV/MI, AU) observed 0530 UTC 25 June 2019
Temperature: 15.0°C (59°F)
Dewpoint: 4.0°C (39°F) [RH = 48%]
Pressure (altimeter): 30.47 inches Hg (1032.0 mb)
Winds: from the E (100 degrees) at 7 MPH (6 knots; 3.1 m/s)
Visibility: 6 or more miles (10+ km)
Ceiling: at least 12,000 feet AGL
Clouds: sky clear below 12,000 feet AGL
Weather: no significant weather observed at this time

METAR text: YSCB 250500Z AUTO 12001KT 9999 // BKN043 15/04 Q1032 RMK RF00.0/000.0 NOSIG RMK USE TAF FOR ARRIVALS AFTER 0600Z
Conditions at: YSCB (CANBERRA (CIV/MI, AU) observed 0500 UTC 25 June 2019
Temperature: 15.0°C (59°F)
Dewpoint: 4.0°C (39°F) [RH = 48%]
Pressure (altimeter): 30.47 inches Hg (1032.0 mb)
Winds: from the ESE (120 degrees) at 1 MPH (1 knots; 0.5 m/s)
Visibility: 6 or more miles (10+ km)
Ceiling: 4300 feet AGL
Clouds: broken clouds at 4300 feet AGL
Weather: no significant weather observed at this time

METAR text: YSCB 250430Z AUTO 25004KT 210V280 9999 // SCT041 16/04 Q1032 RMK RF00.0/000.0 NOSIG RMK USE TAF FOR ARRIVALS AFTER 0600Z
Conditions at: YSCB (CANBERRA (CIV/MI, AU) observed 0430 UTC 25 June 2019
Temperature: 16.0°C (61°F)
Dewpoint: 4.0°C (39°F) [RH = 45%]
Pressure (altimeter): 30.47 inches Hg (1032.0 mb)
Winds: from the WSW (250 degrees) at 5 MPH (4 knots; 2.1 m/s)
Visibility: 6 or more miles (10+ km)
Ceiling: at least 12,000 feet AGL
Clouds: scattered clouds at 4100 feet AGL
Weather: no significant weather observed at this time

METAR text: YSCB 250400Z AUTO 19005KT 9999 // BKN039 14/04 Q1032 RMK RF00.0/000.0 NOSIG RMK USE TAF FOR ARRIVALS AFTER 0600Z
Conditions at: YSCB (CANBERRA (CIV/MI, AU) observed 0400 UTC 25 June 2019
Temperature: 14.0°C (57°F)
Dewpoint: 4.0°C (39°F) [RH = 51%]
Pressure (altimeter): 30.47 inches Hg (1032.0 mb)
Winds: from the S (190 degrees) at 6 MPH (5 knots; 2.6 m/s)
Visibility: 6 or more miles (10+ km)
Ceiling: 3900 feet AGL
Clouds: broken clouds at 3900 feet AGL
Weather: no significant weather observed at this time

METAR text: YSCB 250330Z AUTO 27003KT 9999 // BKN039 15/05 Q1032 RMK RF00.0/000.0 NOSIG RMK USE TAF FOR ARRIVALS AFTER 0600Z
Conditions at: YSCB (CANBERRA (CIV/MI, AU) observed 0330 UTC 25 June 2019
Temperature: 15.0°C (59°F)
Dewpoint: 5.0°C (41°F) [RH = 51%]
Pressure (altimeter): 30.47 inches Hg (1032.0 mb)
Winds: from the W (270 degrees) at 3 MPH (3 knots; 1.5 m/s)
Visibility: 6 or more miles (10+ km)
Ceiling: 3900 feet AGL
Clouds: broken clouds at 3900 feet AGL
Weather: no significant weather observed at this time

METAR text: YSCB 250300Z AUTO 03006KT 360V080 9999 // SCT035 15/05 Q1033 NOSIG
Conditions at: YSCB (CANBERRA (CIV/MI, AU) observed 0300 UTC 25 June 2019
Temperature: 15.0°C (59°F)
Dewpoint: 5.0°C (41°F) [RH = 51%]
Pressure (altimeter): 30.50 inches Hg (1033.0 mb)
Winds: from the NNE (30 degrees) at 7 MPH (6 knots; 3.1 m/s)
Visibility: 6 or more miles (10+ km)
Ceiling: at least 12,000 feet AGL
Clouds: scattered clouds at 3500 feet AGL
Weather: no significant weather observed at this time

METAR text: YSCB 250230Z AUTO 30005KT 270V330 9999 // NCD 14/05 Q1033 RMK RF00.0/000.0 NOSIG
Conditions at: YSCB (CANBERRA (CIV/MI, AU) observed 0230 UTC 25 June 2019
Temperature: 14.0°C (57°F)
Dewpoint: 5.0°C (41°F) [RH = 55%]
Pressure (altimeter): 30.50 inches Hg (1033.0 mb)
Winds: from the WNW (300 degrees) at 6 MPH (5 knots; 2.6 m/s)
Visibility: 6 or more miles (10+ km)
Ceiling: at least 12,000 feet AGL
Clouds: sky clear below 12,000 feet AGL
Weather: no significant weather observed at this time

METAR text: YSCB 250200Z AUTO 08004KT 9999 // NCD 14/06 Q1033 NOSIG
Conditions at: YSCB (CANBERRA (CIV/MI, AU) observed 0200 UTC 25 June 2019
Temperature: 14.0°C (57°F)
Dewpoint: 6.0°C (43°F) [RH = 58%]
Pressure (altimeter): 30.50 inches Hg (1033.0 mb)
Winds: from the E (80 degrees) at 5 MPH (4 knots; 2.1 m/s)
Visibility: 6 or more miles (10+ km)
Ceiling: at least 12,000 feet AGL
Clouds: sky clear below 12,000 feet AGL
Weather: no significant weather observed at this time

METAR text: YSCB 250130Z AUTO 17005KT 140V220 9999 // NCD 13/05 Q1034 RMK RF00.0/000.0 NOSIG
Conditions at: YSCB (CANBERRA (CIV/MI, AU) observed 0130 UTC 25 June 2019
Temperature: 13.0°C (55°F)
Dewpoint: 5.0°C (41°F) [RH = 58%]
Pressure (altimeter): 30.53 inches Hg (1034.0 mb)
Winds: from the S (170 degrees) at 6 MPH (5 knots; 2.6 m/s)
Visibility: 6 or more miles (10+ km)
Ceiling: at least 12,000 feet AGL
Clouds: sky clear below 12,000 feet AGL
Weather: no significant weather observed at this time

METAR text: YSCB 250100Z AUTO 23005KT 9999 // NCD 11/05 Q1034 RMK RF00.0/000.0 NOSIG
Conditions at: YSCB (CANBERRA (CIV/MI, AU) observed 0100 UTC 25 June 2019
Temperature: 11.0°C (52°F)
Dewpoint: 5.0°C (41°F) [RH = 66%]
Pressure (altimeter): 30.53 inches Hg (1034.0 mb)
Winds: from the SW (230 degrees) at 6 MPH (5 knots; 2.6 m/s)
Visibility: 6 or more miles (10+ km)
Ceiling: at least 12,000 feet AGL
Clouds: sky clear below 12,000 feet AGL
Weather: no significant weather observed at this time

METAR text: YSCB 250030Z AUTO 25001KT 9999 // NCD 09/04 Q1035 RMK RF00.0/000.0 NOSIG
Conditions at: YSCB (CANBERRA (CIV/MI, AU) observed 0030 UTC 25 June 2019
Temperature: 9.0°C (48°F)
Dewpoint: 4.0°C (39°F) [RH = 71%]
Pressure (altimeter): 30.56 inches Hg (1035.0 mb)
Winds: from the WSW (250 degrees) at 1 MPH (1 knots; 0.5 m/s)
Visibility: 6 or more miles (10+ km)
Ceiling: at least 12,000 feet AGL
Clouds: sky clear below 12,000 feet AGL
Weather: no significant weather observed at this time

METAR text: YSCB 250000Z AUTO 00000KT 9999 // NCD 08/04 Q1035 NOSIG
Conditions at: YSCB (CANBERRA (CIV/MI, AU) observed 0000 UTC 25 June 2019
Temperature: 8.0°C (46°F)
Dewpoint: 4.0°C (39°F) [RH = 76%]
Pressure (altimeter): 30.56 inches Hg (1035.0 mb)
Winds: calm
Visibility: 6 or more miles (10+ km)
Ceiling: at least 12,000 feet AGL
Clouds: sky clear below 12,000 feet AGL
Weather: no significant weather observed at this time

METAR text: YSCB 242330Z AUTO 00000KT 9999 // NCD 08/05 Q1035 RMK RF00.0/000.0 NOSIG
Conditions at: YSCB (CANBERRA (CIV/MI, AU) observed 2330 UTC 24 June 2019
Temperature: 8.0°C (46°F)
Dewpoint: 5.0°C (41°F) [RH = 81%]
Pressure (altimeter): 30.56 inches Hg (1035.0 mb)
Winds: calm
Visibility: 6 or more miles (10+ km)
Ceiling: at least 12,000 feet AGL
Clouds: sky clear below 12,000 feet AGL
Weather: no significant weather observed at this time

METAR text: YSCB 242300Z AUTO 36003KT 9999 // NCD 04/03 Q1035 RMK RF00.0/000.0 NOSIG
Conditions at: YSCB (CANBERRA (CIV/MI, AU) observed 2300 UTC 24 June 2019
Temperature: 4.0°C (39°F)
Dewpoint: 3.0°C (37°F) [RH = 93%]
Pressure (altimeter): 30.56 inches Hg (1035.0 mb)
Winds: from the N (360 degrees) at 3 MPH (3 knots; 1.5 m/s)
Visibility: 6 or more miles (10+ km)
Ceiling: at least 12,000 feet AGL
Clouds: sky clear below 12,000 feet AGL
Weather: no significant weather observed at this time

METAR text: YSCB 242230Z AUTO 25004KT 120V280 9999 // NCD 02/02 Q1035 RMK RF00.0/000.0 NOSIG
Conditions at: YSCB (CANBERRA (CIV/MI, AU) observed 2230 UTC 24 June 2019
Temperature: 2.0°C (36°F)
Dewpoint: 2.0°C (36°F) [RH = 100%]
Pressure (altimeter): 30.56 inches Hg (1035.0 mb)
Winds: from the WSW (250 degrees) at 5 MPH (4 knots; 2.1 m/s)
Visibility: 6 or more miles (10+ km)
Ceiling: at least 12,000 feet AGL
Clouds: sky clear below 12,000 feet AGL
Weather: no significant weather observed at this time

METAR text: YSCB 242200Z AUTO 12002KT 9999 // NCD 00/00 Q1034 NOSIG
Conditions at: YSCB (CANBERRA (CIV/MI, AU) observed 2200 UTC 24 June 2019
Temperature: 0.0°C (32°F)
Dewpoint: 0.0°C (32°F) [RH = 100%]
Pressure (altimeter): 30.53 inches Hg (1034.0 mb)
Winds: from the ESE (120 degrees) at 2 MPH (2 knots; 1.0 m/s)
Visibility: 6 or more miles (10+ km)
Ceiling: at least 12,000 feet AGL
Clouds: sky clear below 12,000 feet AGL
Weather: no significant weather observed at this time

METAR text: YSCB 242130Z AUTO 00000KT 9999 // NCD M01/M01 Q1035 RMK RF00.0/000.0 NOSIG
Conditions at: YSCB (CANBERRA (CIV/MI, AU) observed 2130 UTC 24 June 2019
Temperature: -1.0°C (30°F)
Dewpoint: -1.0°C (30°F) [RH = 100%]
Pressure (altimeter): 30.56 inches Hg (1035.0 mb)
Winds: calm
Visibility: 6 or more miles (10+ km)
Ceiling: at least 12,000 feet AGL
Clouds: sky clear below 12,000 feet AGL
Weather: no significant weather observed at this time

METAR text: YSCB 242100Z AUTO 06003KT 9999 // NCD M01/M02 Q1035 RMK RF00.0/000.0 FM2130 VRB03KT 3000 BR SCT002 FM2300 09006KT 9999 FEW010
Conditions at: YSCB (CANBERRA (CIV/MI, AU) observed 2100 UTC 24 June 2019
Temperature: -1.0°C (30°F)
Dewpoint: -2.0°C (28°F) [RH = 93%]
Pressure (altimeter): 30.56 inches Hg (1035.0 mb)
Winds: from the ENE (60 degrees) at 3 MPH (3 knots; 1.5 m/s)
Visibility: 6 or more miles (10+ km)
Ceiling: at least 12,000 feet AGL
Clouds: sky clear below 12,000 feet AGL
Weather: no significant weather observed at this time

METAR text: YSCB 242052Z AUTO 05003KT 9999 // NCD M01/M01 Q1035 RF00/0/000/0 FM2052 VRB03KT 9999 FEW005
Conditions at: YSCB (CANBERRA (CIV/MI, AU) observed 2052 UTC 24 June 2019
Temperature: -1.0°C (30°F)
Dewpoint: -1.0°C (30°F) [RH = 100%]
Pressure (altimeter): 30.56 inches Hg (1035.0 mb)
Winds: from the NE (50 degrees) at 3 MPH (3 knots; 1.5 m/s)
Visibility: 6 or more miles (10+ km)
Ceiling: at least 12,000 feet AGL
Clouds: sky clear below 12,000 feet AGL
Weather: no significant weather observed at this time

METAR text: YSCB 242038Z AUTO 10005KT 1100 BR NCD M00/M00 Q1034 RF00/0/000/0 FM2038 VRB03KT 2000 BR SCT001 FM2300 VRB03KT 9999 FEW005
Conditions at: YSCB (CANBERRA (CIV/MI, AU) observed 2038 UTC 24 June 2019
Temperature: 0.0°C (32°F)
Dewpoint: 0.0°C (32°F) [RH = 100%]
Pressure (altimeter): 30.53 inches Hg (1034.0 mb)
Winds: from the E (100 degrees) at 6 MPH (5 knots; 2.6 m/s)
Visibility: 0.68 miles (1.09 km)
Ceiling: at least 12,000 feet AGL
Clouds: sky clear below 12,000 feet AGL
Weather: BR  (mist)

METAR text: YSCB 242030Z AUTO 08005KT 350V100 0600 FZFG ////// M01/M01 Q1034 RMK RF00.0/000.0 CLD:SKY MAY BE OBSC FM2030 VRB03KT 2000 BR SCT001 FM2300 VRB03KT 9999 FEW005
Conditions at: YSCB (CANBERRA (CIV/MI, AU) observed 2030 UTC 24 June 2019
Temperature: -1.0°C (30°F)
Dewpoint: -1.0°C (30°F) [RH = 100%]
Pressure (altimeter): 30.53 inches Hg (1034.0 mb)
Winds: from the E (80 degrees) at 6 MPH (5 knots; 2.6 m/s)
Visibility: 0.37 miles (0.60 km)
Ceiling: unknown
Clouds: missing
Weather: FZFG  (freezing fog)

METAR text: YSCB 242028Z AUTO 05005KT 350V100 0800 FZFG ////// M01/M01 Q1034 FM2028 VRB03KT 2000 BR SCT001 FM2300 VRB03KT 9999 FEW005
Conditions at: YSCB (CANBERRA (CIV/MI, AU) observed 2028 UTC 24 June 2019
Temperature: -1.0°C (30°F)
Dewpoint: -1.0°C (30°F) [RH = 100%]
Pressure (altimeter): 30.53 inches Hg (1034.0 mb)
Winds: from the NE (50 degrees) at 6 MPH (5 knots; 2.6 m/s)
Visibility: 0.50 miles (0.80 km)
Ceiling: unknown
Clouds: missing
Weather: FZFG  (freezing fog)

METAR text: YSCB 242026Z AUTO 03004KT 350V090 3300 BR NCD M01/M01 Q1034 FM2026 VRB03KT 2000 BR SCT001 FM2300 VRB03KT 9999 FEW005
Conditions at: YSCB (CANBERRA (CIV/MI, AU) observed 2026 UTC 24 June 2019
Temperature: -1.0°C (30°F)
Dewpoint: -1.0°C (30°F) [RH = 100%]
Pressure (altimeter): 30.53 inches Hg (1034.0 mb)
Winds: from the NNE (30 degrees) at 5 MPH (4 knots; 2.1 m/s)
Visibility: 2.05 miles (3.30 km)
Ceiling: at least 12,000 feet AGL
Clouds: sky clear below 12,000 feet AGL
Weather: BR  (mist)

METAR text: YSCB 242000Z AUTO 36003KT 9999 // NCD M01/M01 Q1034 RMK RF00.0/000.0 FM2000 VRB03KT 2000 BR SCT002
Conditions at: YSCB (CANBERRA (CIV/MI, AU) observed 2000 UTC 24 June 2019
Temperature: -1.0°C (30°F)
Dewpoint: -1.0°C (30°F) [RH = 100%]
Pressure (altimeter): 30.53 inches Hg (1034.0 mb)
Winds: from the N (360 degrees) at 3 MPH (3 knots; 1.5 m/s)
Visibility: 6 or more miles (10+ km)
Ceiling: at least 12,000 feet AGL
Clouds: sky clear below 12,000 feet AGL
Weather: no significant weather observed at this time

METAR text: YSCB 241956Z AUTO 36003KT 9999 // NCD M01/M01 Q1034 RF00/0/000/0 FM2000 VRB03KT 2000 BR SCT002
Conditions at: YSCB (CANBERRA (CIV/MI, AU) observed 1956 UTC 24 June 2019
Temperature: -1.0°C (30°F)
Dewpoint: -1.0°C (30°F) [RH = 100%]
Pressure (altimeter): 30.53 inches Hg (1034.0 mb)
Winds: from the N (360 degrees) at 3 MPH (3 knots; 1.5 m/s)
Visibility: 6 or more miles (10+ km)
Ceiling: at least 12,000 feet AGL
Clouds: sky clear below 12,000 feet AGL
Weather: no significant weather observed at this time

METAR text: YSCB 241940Z AUTO 34005KT 1000 BR ////// M01/M01 Q1033 RF00/0/000/0 CLD/SKY MAY BE OBSC FM1940 VRB03KT 9999 FEW001 FM2000 VRB03KT 2000 BR SCT001
Conditions at: YSCB (CANBERRA (CIV/MI, AU) observed 1940 UTC 24 June 2019
Temperature: -1.0°C (30°F)
Dewpoint: -1.0°C (30°F) [RH = 100%]
Pressure (altimeter): 30.50 inches Hg (1033.0 mb)
Winds: from the NNW (340 degrees) at 6 MPH (5 knots; 2.6 m/s)
Visibility: 0.62 miles (1.00 km)
Ceiling: unknown
Clouds: missing
Weather: BR  (mist)

METAR text: YSCB 241938Z AUTO 33005KT 0900 FZFG ////// M01/M01 Q1033 FM2000 VRB03KT 2000 BR SCT001
Conditions at: YSCB (CANBERRA (CIV/MI, AU) observed 1938 UTC 24 June 2019
Temperature: -1.0°C (30°F)
Dewpoint: -1.0°C (30°F) [RH = 100%]
Pressure (altimeter): 30.50 inches Hg (1033.0 mb)
Winds: from the NNW (330 degrees) at 6 MPH (5 knots; 2.6 m/s)
Visibility: 0.56 miles (0.90 km)
Ceiling: unknown
Clouds: missing
Weather: FZFG  (freezing fog)

METAR text: YSCB 241930Z AUTO 32001KT 5000 BR NCD 00/M00 Q1033 RMK RF00.0/000.0 FM2000 VRB03KT 2000 BR SCT002
Conditions at: YSCB (CANBERRA (CIV/MI, AU) observed 1930 UTC 24 June 2019
Temperature: 0.0°C (32°F)
Dewpoint: 0.0°C (32°F) [RH = 100%]
Pressure (altimeter): 30.50 inches Hg (1033.0 mb)
Winds: from the NW (320 degrees) at 1 MPH (1 knots; 0.5 m/s)
Visibility: 3 miles ( 5 km)
Ceiling: at least 12,000 feet AGL
Clouds: sky clear below 12,000 feet AGL
Weather: BR  (mist)

METAR text: YSCB 241925Z AUTO 00000KT 9999 // NCD 00/M00 Q1033 RF00/0/000/0 FM2000 VRB03KT 2000 BR SCT002
Conditions at: YSCB (CANBERRA (CIV/MI, AU) observed 1925 UTC 24 June 2019
Temperature: 0.0°C (32°F)
Dewpoint: 0.0°C (32°F) [RH = 100%]
Pressure (altimeter): 30.50 inches Hg (1033.0 mb)
Winds: calm
Visibility: 6 or more miles (10+ km)
Ceiling: at least 12,000 feet AGL
Clouds: sky clear below 12,000 feet AGL
Weather: no significant weather observed at this time

METAR text: YSCB 241904Z AUTO 00000KT 6000 // NCD 00/00 Q1033 RF00/0/000/0 FM1900 VRB03KT 9999 FEW005
Conditions at: YSCB (CANBERRA (CIV/MI, AU) observed 1904 UTC 24 June 2019
Temperature: 0.0°C (32°F)
Dewpoint: 0.0°C (32°F) [RH = 100%]
Pressure (altimeter): 30.50 inches Hg (1033.0 mb)
Winds: calm
Visibility: 4 miles ( 6 km)
Ceiling: at least 12,000 feet AGL
Clouds: sky clear below 12,000 feet AGL
Weather: no significant weather observed at this time

METAR text: YSCB 241900Z AUTO 00000KT 9999 // NCD 00/00 Q1033 FM1900 VRB03KT 9999 FEW005
Conditions at: YSCB (CANBERRA (CIV/MI, AU) observed 1900 UTC 24 June 2019
Temperature: 0.0°C (32°F)
Dewpoint: 0.0°C (32°F) [RH = 100%]
Pressure (altimeter): 30.50 inches Hg (1033.0 mb)
Winds: calm
Visibility: 6 or more miles (10+ km)
Ceiling: at least 12,000 feet AGL
Clouds: sky clear below 12,000 feet AGL
Weather: no significant weather observed at this time

METAR text: YSCB 241830Z AUTO 00000KT 9999 // SCT019 00/00 Q1033 RF00.0/000.0
Conditions at: YSCB (CANBERRA (CIV/MI, AU) observed 1830 UTC 24 June 2019
Temperature: 0.0°C (32°F)
Dewpoint: 0.0°C (32°F) [RH = 100%]
Pressure (altimeter): 30.50 inches Hg (1033.0 mb)
Winds: calm
Visibility: 6 or more miles (10+ km)
Ceiling: at least 12,000 feet AGL
Clouds: scattered clouds at 1900 feet AGL
Weather: no significant weather observed at this time

METAR text: YSCB 241800Z AUTO 00000KT 9999 // NCD 00/M00 Q1033 RF00.0/000.0
Conditions at: YSCB (CANBERRA (CIV/MI, AU) observed 1800 UTC 24 June 2019
Temperature: 0.0°C (32°F)
Dewpoint: 0.0°C (32°F) [RH = 100%]
Pressure (altimeter): 30.50 inches Hg (1033.0 mb)
Winds: calm
Visibility: 6 or more miles (10+ km)
Ceiling: at least 12,000 feet AGL
Clouds: sky clear below 12,000 feet AGL
Weather: no significant weather observed at this time

METAR text: YSCB 241730Z AUTO 14001KT 9999 // SCT039 02/02 Q1033 RF00.0/000.0
Conditions at: YSCB (CANBERRA (CIV/MI, AU) observed 1730 UTC 24 June 2019
Temperature: 2.0°C (36°F)
Dewpoint: 2.0°C (36°F) [RH = 100%]
Pressure (altimeter): 30.50 inches Hg (1033.0 mb)
Winds: from the SE (140 degrees) at 1 MPH (1 knots; 0.5 m/s)
Visibility: 6 or more miles (10+ km)
Ceiling: at least 12,000 feet AGL
Clouds: scattered clouds at 3900 feet AGL
Weather: no significant weather observed at this time

METAR text: YSCB 241700Z AUTO 13005KT 9999 // SCT039 03/03 Q1033
Conditions at: YSCB (CANBERRA (CIV/MI, AU) observed 1700 UTC 24 June 2019
Temperature: 3.0°C (37°F)
Dewpoint: 3.0°C (37°F) [RH = 100%]
Pressure (altimeter): 30.50 inches Hg (1033.0 mb)
Winds: from the SE (130 degrees) at 6 MPH (5 knots; 2.6 m/s)
Visibility: 6 or more miles (10+ km)
Ceiling: at least 12,000 feet AGL
Clouds: scattered clouds at 3900 feet AGL
Weather: no significant weather observed at this time

METAR text: YSCB 241630Z AUTO 00000KT 9999 // NCD 03/03 Q1034 RF00.0/000.0
Conditions at: YSCB (CANBERRA (CIV/MI, AU) observed 1630 UTC 24 June 2019
Temperature: 3.0°C (37°F)
Dewpoint: 3.0°C (37°F) [RH = 100%]
Pressure (altimeter): 30.53 inches Hg (1034.0 mb)
Winds: calm
Visibility: 6 or more miles (10+ km)
Ceiling: at least 12,000 feet AGL
Clouds: sky clear below 12,000 feet AGL
Weather: no significant weather observed at this time

METAR text: YSCB 241600Z AUTO 12003KT 9999 // NCD 03/02 Q1034
Conditions at: YSCB (CANBERRA (CIV/MI, AU) observed 1600 UTC 24 June 2019
Temperature: 3.0°C (37°F)
Dewpoint: 2.0°C (36°F) [RH = 93%]
Pressure (altimeter): 30.53 inches Hg (1034.0 mb)
Winds: from the ESE (120 degrees) at 3 MPH (3 knots; 1.5 m/s)
Visibility: 6 or more miles (10+ km)
Ceiling: at least 12,000 feet AGL
Clouds: sky clear below 12,000 feet AGL
Weather: no significant weather observed at this time

Forecast for: YSCB (CANBERRA (CIV/MI, AU)
Text: TAF YSCB 252316Z 2600/2624 09006KT 9999 SCT030
Forecast period: 0000 to 1000 UTC 26 June 2019
Forecast type: FROM: standard forecast or significant change
Winds: from the E (90 degrees) at 7 MPH (6 knots; 3.1 m/s)
Visibility: 6 or more miles 10+ km)
Ceiling: at least 12,000 feet AGL
Clouds: scattered clouds at 3000 feet AGL
Weather: no significant weather forecast for this period
Text: FM261000 13003KT 9999 FEW015
Forecast period: 1000 to 1200 UTC 26 June 2019
Forecast type: FROM: standard forecast or significant change
Winds: from the SE (130 degrees) at 3 MPH (3 knots; 1.5 m/s)
Visibility: 6 or more miles 10+ km)
Ceiling: at least 12,000 feet AGL
Clouds: few clouds at 1500 feet AGL
Weather: no significant weather forecast for this period
Text: BECMG 2612/2614 15003KT 9999 FEW015 BKN020
Forecast period: 1200 to 2300 UTC 26 June 2019
Forecast type: BECOMING: Conditions expected to become as follows by 1400 UTC 26 June 2019
Winds: from the SSE (150 degrees) at 3 MPH (3 knots; 1.5 m/s)
Visibility: 6 or more miles 10+ km)
Ceiling: 2000 feet AGL
Clouds: few clouds at 1500 feet AGL
broken clouds at 2000 feet AGL
Weather: no significant weather forecast for this period
Text: BECMG 2623/2624 13006KT 9999 BKN030
Forecast period: 2300 UTC 26 June 2019 to 0000 UTC 27 June 2019
Forecast type: BECOMING: Conditions expected to become as follows by 0000 UTC 27 June 2019
Winds: from the SE (130 degrees) at 7 MPH (6 knots; 3.1 m/s)
Visibility: 6 or more miles 10+ km)
Ceiling: 3000 feet AGL
Clouds: broken clouds at 3000 feet AGL
Weather: no significant weather forecast for this period